Time;durP1;ratioP1;P1;durP2;ratioP2;P2;SDS_P1;SDS_P2;PMS_P1;PMS_P2;Temp;Humidity;BMP_temperature;BMP_pressure;BME280_temperature;BME280_humidity;BME280_pressure;Samples;Min_cycle;Max_cycle;Signal;HPM_P1;HPM_P2
2023/11/07 00:00:50;;;;;;;7.47;1.70;;;;;;;;;;5086027;28;20432;-64
2023/11/07 00:03:16;;;;;;;4.20;1.50;;;;;;;;;;5081533;28;20056;-64
2023/11/07 00:05:47;;;;;;;4.57;1.30;;;;;;;;;;5079268;28;20055;-65
2023/11/07 00:08:14;;;;;;;4.97;1.50;;;;;;;;;;5082494;28;20389;-65
2023/11/07 00:10:41;;;;;;;7.30;1.60;;;;;;;;;;5089087;28;20061;-65
2023/11/07 00:13:10;;;;;;;5.93;1.95;;;;;;;;;;5086007;28;20052;-64
2023/11/07 00:15:37;;;;;;;2.75;1.33;;;;;;;;;;5093775;28;20048;-64
2023/11/07 00:18:04;;;;;;;5.05;1.58;;;;;;;;;;5090601;28;20055;-64
2023/11/07 00:20:31;;;;;;;4.65;1.10;;;;;;;;;;5082329;28;20070;-64
2023/11/07 00:22:59;;;;;;;2.40;1.20;;;;;;;;;;5090674;28;20048;-64
2023/11/07 00:25:26;;;;;;;3.33;1.00;;;;;;;;;;5080238;28;20167;-64
2023/11/07 00:27:53;;;;;;;3.30;1.20;;;;;;;;;;5085523;28;20056;-64
2023/11/07 00:30:20;;;;;;;4.45;1.20;;;;;;;;;;5088483;28;20047;-64
2023/11/07 00:32:49;;;;;;;5.28;1.42;;;;;;;;;;5079119;28;20044;-64
2023/11/07 00:35:16;;;;;;;4.20;1.25;;;;;;;;;;5097543;28;20485;-64
2023/11/07 00:37:43;;;;;;;3.75;1.10;;;;;;;;;;5093540;28;20372;-64
2023/11/07 00:40:12;;;;;;;4.85;1.23;;;;;;;;;;5084387;28;20133;-64
2023/11/07 00:42:39;;;;;;;3.90;1.17;;;;;;;;;;5094814;28;20040;-64
2023/11/07 00:45:06;;;;;;;2.67;1.10;;;;;;;;;;5094918;28;20063;-64
2023/11/07 00:47:33;;;;;;;4.03;1.33;;;;;;;;;;5078347;28;20056;-64
2023/11/07 00:49:59;;;;;;;3.88;1.23;;;;;;;;;;5082203;28;20058;-64
2023/11/07 00:52:27;;;;;;;2.88;1.00;;;;;;;;;;5081106;28;20051;-64
2023/11/07 00:54:54;;;;;;;2.72;1.10;;;;;;;;;;5090886;28;20048;-65
2023/11/07 00:57:22;;;;;;;4.00;1.20;;;;;;;;;;5089449;28;20056;-64
2023/11/07 00:59:50;;;;;;;3.53;1.30;;;;;;;;;;5091988;28;20059;-64
2023/11/07 01:02:17;;;;;;;2.63;1.00;;;;;;;;;;5088677;28;20473;-64
2023/11/07 01:04:44;;;;;;;4.50;1.52;;;;;;;;;;5079555;28;20063;-64
2023/11/07 01:07:11;;;;;;;3.22;1.10;;;;;;;;;;5089096;28;20485;-63
2023/11/07 01:09:38;;;;;;;3.33;1.02;;;;;;;;;;5093036;28;20119;-63
2023/11/07 01:12:05;;;;;;;4.25;1.20;;;;;;;;;;5093450;28;20048;-64
2023/11/07 01:14:33;;;;;;;2.50;1.05;;;;;;;;;;5094817;28;20059;-64
2023/11/07 01:17:00;;;;;;;2.72;1.10;;;;;;;;;;5087699;28;20059;-63
2023/11/07 01:19:28;;;;;;;5.15;1.40;;;;;;;;;;5087689;28;20059;-64
2023/11/07 01:21:55;;;;;;;2.92;1.02;;;;;;;;;;5090076;28;20056;-64
2023/11/07 01:24:21;;;;;;;2.95;1.42;;;;;;;;;;5081574;28;20048;-64
2023/11/07 01:26:48;;;;;;;4.55;1.60;;;;;;;;;;5088048;28;20059;-64
2023/11/07 01:29:16;;;;;;;2.78;1.00;;;;;;;;;;5088277;28;20052;-64
2023/11/07 01:31:46;;;;;;;3.67;0.90;;;;;;;;;;5086141;28;20055;-64
2023/11/07 01:34:12;;;;;;;3.53;1.05;;;;;;;;;;5082897;28;20044;-64
2023/11/07 01:36:42;;;;;;;3.58;1.20;;;;;;;;;;5093303;28;20044;-64
2023/11/07 01:39:11;;;;;;;3.72;1.23;;;;;;;;;;5088044;28;20111;-64
2023/11/07 01:41:38;;;;;;;3.35;1.30;;;;;;;;;;5077407;28;20049;-64
2023/11/07 01:44:05;;;;;;;2.38;0.90;;;;;;;;;;5091049;28;20436;-64
2023/11/07 01:46:32;;;;;;;4.30;1.45;;;;;;;;;;5083691;28;20056;-64
2023/11/07 01:49:00;;;;;;;1.67;0.77;;;;;;;;;;5084103;28;20057;-63
2023/11/07 01:51:27;;;;;;;3.22;1.10;;;;;;;;;;5090627;28;20052;-63
2023/11/07 01:53:54;;;;;;;2.65;1.10;;;;;;;;;;5083377;28;20416;-64
2023/11/07 01:56:23;;;;;;;3.75;0.90;;;;;;;;;;5084857;28;20072;-64
2023/11/07 01:58:49;;;;;;;2.20;1.13;;;;;;;;;;5087516;28;20048;-64
2023/11/07 02:01:19;;;;;;;4.95;1.25;;;;;;;;;;5087258;28;20517;-64
2023/11/07 02:03:47;;;;;;;4.28;0.82;;;;;;;;;;5091160;28;20055;-63
2023/11/07 02:06:16;;;;;;;2.35;0.80;;;;;;;;;;5084530;28;20060;-64
2023/11/07 02:08:42;;;;;;;2.90;0.93;;;;;;;;;;5090902;28;20404;-64
2023/11/07 02:11:09;;;;;;;2.55;0.80;;;;;;;;;;5092888;28;20052;-64
2023/11/07 02:13:36;;;;;;;1.55;0.80;;;;;;;;;;5088876;28;20040;-63
2023/11/07 02:16:03;;;;;;;3.10;0.88;;;;;;;;;;5089358;28;20075;-64
2023/11/07 02:18:30;;;;;;;2.35;0.80;;;;;;;;;;5093572;28;20412;-63
2023/11/07 02:20:57;;;;;;;1.92;0.93;;;;;;;;;;5085487;28;20044;-63
2023/11/07 02:23:32;;;;;;;2.42;0.70;;;;;;;;;;5099704;28;20062;-64
2023/11/07 02:25:59;;;;;;;2.08;0.95;;;;;;;;;;5083839;28;20048;-64
2023/11/07 02:28:25;;;;;;;2.67;1.00;;;;;;;;;;5089162;28;20058;-64
2023/11/07 02:30:52;;;;;;;3.33;1.08;;;;;;;;;;5091273;28;20055;-64
2023/11/07 02:33:20;;;;;;;3.67;0.88;;;;;;;;;;5088192;28;20048;-63
2023/11/07 02:35:47;;;;;;;3.40;1.23;;;;;;;;;;5084428;28;20052;-64
2023/11/07 02:38:14;;;;;;;2.85;0.80;;;;;;;;;;5084933;28;20052;-64
2023/11/07 02:40:42;;;;;;;3.13;0.68;;;;;;;;;;5097616;28;20056;-64
2023/11/07 02:43:11;;;;;;;1.30;0.60;;;;;;;;;;5096510;28;20044;-64
2023/11/07 02:45:38;;;;;;;4.63;0.93;;;;;;;;;;5084375;28;20150;-64
2023/11/07 02:48:05;;;;;;;2.13;0.90;;;;;;;;;;5095148;28;20162;-64
2023/11/07 02:50:33;;;;;;;2.05;0.80;;;;;;;;;;5074274;28;20505;-63
2023/11/07 02:52:59;;;;;;;2.25;0.90;;;;;;;;;;5065215;28;20383;-64
2023/11/07 02:55:28;;;;;;;4.55;0.90;;;;;;;;;;5071083;28;20527;-63
2023/11/07 02:57:56;;;;;;;2.70;0.77;;;;;;;;;;5074094;28;20063;-64
2023/11/07 03:00:26;;;;;;;2.85;0.88;;;;;;;;;;5065005;28;20470;-63
2023/11/07 03:02:53;;;;;;;2.58;0.80;;;;;;;;;;5065715;28;20409;-63
2023/11/07 03:05:20;;;;;;;2.08;0.77;;;;;;;;;;5064165;28;20049;-63
2023/11/07 03:07:47;;;;;;;3.17;1.17;;;;;;;;;;5059721;28;20049;-63
2023/11/07 03:10:14;;;;;;;2.42;0.90;;;;;;;;;;5074745;28;20052;-64
2023/11/07 03:12:41;;;;;;;2.20;0.90;;;;;;;;;;5059961;28;20044;-63
2023/11/07 03:15:10;;;;;;;2.70;0.90;;;;;;;;;;5065844;28;20059;-64
2023/11/07 03:17:37;;;;;;;2.13;0.80;;;;;;;;;;5061165;28;20116;-63
2023/11/07 03:20:06;;;;;;;4.75;1.17;;;;;;;;;;5069602;28;20429;-63
2023/11/07 03:22:33;;;;;;;;;;;;;;;;;;5066310;28;20481;-63
2023/11/07 03:25:00;;;;;;;2.97;1.00;;;;;;;;;;5062316;28;19920;-63
2023/11/07 03:27:26;;;;;;;5.10;0.80;;;;;;;;;;5070809;28;20052;-64
2023/11/07 03:29:53;;;;;;;2.38;0.75;;;;;;;;;;5075007;28;20055;-64
2023/11/07 03:32:21;;;;;;;2.88;0.93;;;;;;;;;;5061536;28;20056;-64
2023/11/07 03:34:49;;;;;;;1.90;0.80;;;;;;;;;;5064032;28;20048;-64
2023/11/07 03:37:16;;;;;;;3.30;0.82;;;;;;;;;;5066809;28;20060;-64
2023/11/07 03:39:43;;;;;;;3.17;1.00;;;;;;;;;;5066123;28;20059;-64
2023/11/07 03:42:09;;;;;;;3.58;0.70;;;;;;;;;;5076673;28;20048;-63
2023/11/07 03:44:36;;;;;;;3.03;1.05;;;;;;;;;;5054296;28;20045;-64
2023/11/07 03:47:05;;;;;;;2.47;0.75;;;;;;;;;;5065734;28;20053;-63
2023/11/07 03:49:34;;;;;;;2.05;0.85;;;;;;;;;;5066703;28;20417;-64
2023/11/07 03:52:01;;;;;;;2.13;0.73;;;;;;;;;;5074768;28;20056;-64
2023/11/07 03:54:27;;;;;;;4.55;1.00;;;;;;;;;;5090621;28;20043;-63
2023/11/07 03:56:54;;;;;;;2.08;0.60;;;;;;;;;;5080103;28;20053;-63
2023/11/07 03:59:21;;;;;;;1.30;0.60;;;;;;;;;;5091998;28;20405;-64
2023/11/07 04:01:48;;;;;;;4.15;1.17;;;;;;;;;;5084671;28;20052;-64
2023/11/07 04:04:14;;;;;;;1.90;0.70;;;;;;;;;;5084728;28;20055;-64
2023/11/07 04:06:43;;;;;;;3.33;1.00;;;;;;;;;;5084732;28;20051;-64
2023/11/07 04:09:09;;;;;;;2.75;1.00;;;;;;;;;;5085160;28;20412;-64
2023/11/07 04:11:36;;;;;;;1.88;1.00;;;;;;;;;;5076709;28;20056;-63
2023/11/07 04:14:03;;;;;;;2.70;0.85;;;;;;;;;;5081217;28;20056;-63
2023/11/07 04:16:30;;;;;;;3.20;1.08;;;;;;;;;;5093958;28;20480;-63
2023/11/07 04:18:57;;;;;;;3.22;1.00;;;;;;;;;;5086399;28;20056;-63
2023/11/07 04:21:24;;;;;;;2.30;0.82;;;;;;;;;;5092400;28;20064;-63
2023/11/07 04:23:52;;;;;;;1.38;0.70;;;;;;;;;;5090653;28;20052;-63
2023/11/07 04:26:18;;;;;;;3.40;1.00;;;;;;;;;;5093223;28;20385;-63
2023/11/07 04:28:46;;;;;;;1.75;0.80;;;;;;;;;;5098096;28;20052;-63
2023/11/07 04:31:13;;;;;;;1.83;0.80;;;;;;;;;;5099769;28;20063;-63
2023/11/07 04:33:41;;;;;;;1.05;0.50;;;;;;;;;;5087974;28;20048;-63
2023/11/07 04:36:09;;;;;;;3.20;0.70;;;;;;;;;;5089817;28;20052;-63
2023/11/07 04:38:36;;;;;;;2.33;0.88;;;;;;;;;;5094522;28;20044;-63
2023/11/07 04:41:04;;;;;;;2.70;0.80;;;;;;;;;;5097126;28;20056;-63
2023/11/07 04:43:35;;;;;;;2.58;0.98;;;;;;;;;;5087327;28;20409;-64
2023/11/07 04:46:02;;;;;;;2.25;0.93;;;;;;;;;;5080185;28;20056;-63
2023/11/07 04:48:31;;;;;;;1.98;0.75;;;;;;;;;;5083280;28;20047;-63
2023/11/07 04:50:59;;;;;;;2.20;0.77;;;;;;;;;;5085707;28;20057;-63
2023/11/07 04:53:26;;;;;;;2.28;0.70;;;;;;;;;;5080428;28;20194;-63
2023/11/07 04:55:53;;;;;;;3.25;0.80;;;;;;;;;;5087947;28;20055;-63
2023/11/07 04:58:21;;;;;;;1.90;0.88;;;;;;;;;;5082896;28;20055;-63
2023/11/07 05:00:48;;;;;;;3.80;0.80;;;;;;;;;;5082472;28;20059;-63
2023/11/07 05:03:16;;;;;;;1.25;0.60;;;;;;;;;;5081489;28;20414;-63
2023/11/07 05:05:43;;;;;;;2.75;0.95;;;;;;;;;;5087649;28;20401;-63
2023/11/07 05:08:10;;;;;;;2.25;0.73;;;;;;;;;;5090087;28;20447;-63
2023/11/07 05:10:37;;;;;;;3.90;0.93;;;;;;;;;;5096099;28;20056;-62
2023/11/07 05:13:06;;;;;;;3.03;0.77;;;;;;;;;;5078631;28;20063;-63
2023/11/07 05:15:34;;;;;;;2.47;0.70;;;;;;;;;;5087823;28;20041;-62
2023/11/07 05:18:01;;;;;;;2.30;0.70;;;;;;;;;;5084669;28;20048;-63
2023/11/07 05:20:28;;;;;;;2.33;0.70;;;;;;;;;;5091070;28;20048;-62
2023/11/07 05:22:55;;;;;;;2.55;0.80;;;;;;;;;;5090898;28;20465;-62
2023/11/07 05:25:22;;;;;;;3.30;0.75;;;;;;;;;;5078230;28;20052;-62
2023/11/07 05:27:48;;;;;;;2.25;0.80;;;;;;;;;;5086636;28;20058;-63
2023/11/07 05:30:15;;;;;;;1.50;0.60;;;;;;;;;;5094286;28;20075;-63
2023/11/07 05:32:46;;;;;;;1.80;0.80;;;;;;;;;;5080765;28;20051;-62
2023/11/07 05:35:13;;;;;;;2.40;0.70;;;;;;;;;;5092890;28;20044;-62
2023/11/07 05:37:40;;;;;;;2.03;0.70;;;;;;;;;;5088693;28;20058;-62
2023/11/07 05:40:13;;;;;;;3.35;0.90;;;;;;;;;;5078631;28;20074;-63
2023/11/07 05:42:40;;;;;;;3.40;0.80;;;;;;;;;;5103668;28;20047;-62
2023/11/07 05:45:08;;;;;;;2.15;1.00;;;;;;;;;;5114189;28;20496;-63
2023/11/07 05:47:36;;;;;;;2.05;0.70;;;;;;;;;;5084488;28;20060;-62
2023/11/07 05:50:05;;;;;;;2.75;0.88;;;;;;;;;;5093606;28;20051;-62
2023/11/07 05:52:35;;;;;;;2.95;0.80;;;;;;;;;;5084951;28;20048;-62
2023/11/07 05:55:06;;;;;;;2.78;0.70;;;;;;;;;;5074748;28;20044;-63
2023/11/07 05:57:35;;;;;;;1.80;0.90;;;;;;;;;;5089179;28;20059;-63
2023/11/07 06:00:06;;;;;;;3.10;0.98;;;;;;;;;;5089060;28;20056;-61
2023/11/07 06:02:32;;;;;;;2.42;1.00;;;;;;;;;;5073450;28;20053;-61
2023/11/07 06:05:01;;;;;;;1.70;0.80;;;;;;;;;;5072976;28;20150;-61
2023/11/07 06:07:32;;;;;;;3.58;0.88;;;;;;;;;;5074326;28;20390;-61
2023/11/07 06:10:00;;;;;;;2.60;1.10;;;;;;;;;;5074275;28;20056;-61
2023/11/07 06:12:27;;;;;;;4.38;0.98;;;;;;;;;;5073427;28;20063;-61
2023/11/07 06:14:54;;;;;;;2.47;1.05;;;;;;;;;;5073093;28;20052;-61
2023/11/07 06:17:21;;;;;;;1.98;0.80;;;;;;;;;;5073019;28;20140;-61
2023/11/07 06:19:48;;;;;;;3.97;1.10;;;;;;;;;;5072695;28;20485;-61
2023/11/07 06:22:14;;;;;;;1.50;1.02;;;;;;;;;;5080409;28;20048;-61
2023/11/07 06:24:44;;;;;;;2.85;1.10;;;;;;;;;;5074882;28;20068;-62
2023/11/07 06:27:11;;;;;;;2.40;0.93;;;;;;;;;;5085058;28;20082;-62
2023/11/07 06:29:41;;;;;;;2.47;0.82;;;;;;;;;;5073994;28;20053;-62
2023/11/07 06:32:09;;;;;;;1.85;1.00;;;;;;;;;;5078767;28;20052;-61
2023/11/07 06:34:36;;;;;;;2.83;1.00;;;;;;;;;;5085159;28;20045;-61
2023/11/07 06:37:03;;;;;;;2.47;0.90;;;;;;;;;;5086334;28;20359;-61
2023/11/07 06:39:30;;;;;;;3.85;1.02;;;;;;;;;;5090284;28;20063;-61
2023/11/07 06:41:58;;;;;;;3.42;1.25;;;;;;;;;;5082615;28;20417;-61
2023/11/07 06:44:25;;;;;;;3.17;1.13;;;;;;;;;;5077938;28;20056;-61
2023/11/07 06:46:53;;;;;;;2.85;1.30;;;;;;;;;;5083024;28;20051;-61
2023/11/07 06:49:20;;;;;;;2.08;1.17;;;;;;;;;;5087605;28;20111;-61
2023/11/07 06:51:47;;;;;;;2.65;1.15;;;;;;;;;;5094046;28;20048;-61
2023/11/07 06:54:13;;;;;;;2.88;1.10;;;;;;;;;;5086593;28;20055;-61
2023/11/07 06:56:40;;;;;;;2.45;1.02;;;;;;;;;;5086041;28;20055;-62
2023/11/07 06:59:09;;;;;;;2.50;1.00;;;;;;;;;;5091845;28;20052;-61
2023/11/07 07:01:36;;;;;;;2.90;0.93;;;;;;;;;;5088192;28;20059;-61
2023/11/07 07:04:03;;;;;;;2.50;0.90;;;;;;;;;;5091770;28;20055;-62
2023/11/07 07:06:32;;;;;;;2.95;0.80;;;;;;;;;;5092326;28;20052;-61
2023/11/07 07:08:58;;;;;;;3.15;0.90;;;;;;;;;;5096623;28;20058;-61
2023/11/07 07:11:25;;;;;;;2.38;1.00;;;;;;;;;;5097948;28;20052;-61
2023/11/07 07:13:52;;;;;;;3.42;1.00;;;;;;;;;;5099487;28;20052;-61
2023/11/07 07:16:22;;;;;;;1.85;0.90;;;;;;;;;;5089753;28;20047;-61
2023/11/07 07:18:49;;;;;;;2.75;0.90;;;;;;;;;;5082149;28;20052;-61
2023/11/07 07:21:16;;;;;;;1.73;1.10;;;;;;;;;;5092146;28;20493;-61
2023/11/07 07:23:46;;;;;;;2.85;0.85;;;;;;;;;;5105536;28;20056;-60
2023/11/07 07:26:14;;;;;;;2.42;1.10;;;;;;;;;;5100835;28;20055;-61
2023/11/07 07:28:41;;;;;;;2.40;0.90;;;;;;;;;;5091929;28;20052;-61
2023/11/07 07:31:07;;;;;;;3.15;0.90;;;;;;;;;;5091357;28;20052;-61
2023/11/07 07:33:36;;;;;;;2.35;1.02;;;;;;;;;;5091957;28;20063;-61
2023/11/07 07:36:04;;;;;;;2.53;0.87;;;;;;;;;;5091958;28;20159;-61
2023/11/07 07:38:32;;;;;;;2.88;0.85;;;;;;;;;;5080223;28;20493;-61
2023/11/07 07:40:58;;;;;;;1.30;0.80;;;;;;;;;;5078607;28;20055;-61
2023/11/07 07:43:26;;;;;;;1.67;0.90;;;;;;;;;;5090651;28;20477;-63
2023/11/07 07:45:55;;;;;;;1.90;0.88;;;;;;;;;;5109177;28;20412;-60
2023/11/07 07:48:22;;;;;;;3.55;1.10;;;;;;;;;;5093935;28;20390;-61
2023/11/07 07:50:51;;;;;;;2.17;0.95;;;;;;;;;;5089424;28;20057;-41
2023/11/07 07:53:21;;;;;;;1.85;0.90;;;;;;;;;;5049483;28;20065;-67
2023/11/07 07:55:50;;;;;;;3.65;0.98;;;;;;;;;;5057917;28;20052;-66
2023/11/07 07:58:18;;;;;;;1.77;0.90;;;;;;;;;;5052441;28;20056;-67
2023/11/07 08:00:49;;;;;;;2.80;1.00;;;;;;;;;;5067499;28;20049;-67
2023/11/07 08:03:16;;;;;;;2.22;0.82;;;;;;;;;;5069430;28;20048;-67
2023/11/07 08:05:44;;;;;;;1.95;0.85;;;;;;;;;;5059703;28;20048;-66
2023/11/07 08:08:13;;;;;;;2.40;0.73;;;;;;;;;;5061949;28;20425;-67
2023/11/07 08:10:40;;;;;;;1.38;0.70;;;;;;;;;;5058515;28;20049;-66
2023/11/07 08:13:09;;;;;;;2.78;0.70;;;;;;;;;;5063905;28;20049;-67
2023/11/07 08:15:37;;;;;;;1.58;0.63;;;;;;;;;;5063910;28;20045;-67
2023/11/07 08:18:06;;;;;;;1.42;0.65;;;;;;;;;;5065594;28;20064;-67
2023/11/07 08:20:36;;;;;;;1.20;0.70;;;;;;;;;;5063514;28;20067;-67
2023/11/07 08:23:04;;;;;;;2.13;1.00;;;;;;;;;;5066041;28;20071;-67
2023/11/07 08:25:32;;;;;;;1.35;0.80;;;;;;;;;;5066401;28;20056;-67
2023/11/07 08:27:59;;;;;;;2.65;1.00;;;;;;;;;;5062272;28;20048;-67
2023/11/07 08:30:26;;;;;;;1.98;0.82;;;;;;;;;;5070115;28;20058;-67
2023/11/07 08:32:53;;;;;;;1.98;1.00;;;;;;;;;;5062429;28;20052;-67
2023/11/07 08:35:20;;;;;;;2.25;0.95;;;;;;;;;;5059497;28;20057;-67
2023/11/07 08:37:47;;;;;;;1.73;0.80;;;;;;;;;;5071019;28;20485;-66
2023/11/07 08:40:16;;;;;;;2.00;0.75;;;;;;;;;;5067052;28;20486;-67
2023/11/07 08:42:44;;;;;;;1.95;0.95;;;;;;;;;;5067085;28;20397;-67
2023/11/07 08:45:15;;;;;;;1.35;0.70;;;;;;;;;;5060259;28;20064;-67
2023/11/07 08:47:43;;;;;;;1.50;0.93;;;;;;;;;;5067366;28;20063;-66
2023/11/07 08:50:10;;;;;;;2.45;0.90;;;;;;;;;;5074568;28;20060;-67
2023/11/07 08:52:37;;;;;;;2.03;0.80;;;;;;;;;;5077389;28;20382;-67
2023/11/07 08:55:05;;;;;;;1.77;0.77;;;;;;;;;;5081095;28;20060;-67
2023/11/07 08:57:32;;;;;;;3.47;1.70;;;;;;;;;;5082100;28;20051;-67
2023/11/07 09:00:00;;;;;;;2.67;1.20;;;;;;;;;;5084158;28;20063;-67
2023/11/07 09:02:27;;;;;;;3.13;0.93;;;;;;;;;;5092775;28;20043;-67
2023/11/07 09:04:54;;;;;;;1.95;0.80;;;;;;;;;;5088015;28;20048;-67
2023/11/07 09:07:22;;;;;;;1.60;0.80;;;;;;;;;;5085530;28;20071;-67
2023/11/07 09:09:49;;;;;;;1.58;0.90;;;;;;;;;;5092751;28;20059;-67
2023/11/07 09:12:16;;;;;;;1.67;0.95;;;;;;;;;;5092232;28;20048;-67
2023/11/07 09:14:42;;;;;;;2.05;1.02;;;;;;;;;;5089872;28;20048;-67
2023/11/07 09:17:12;;;;;;;1.50;0.73;;;;;;;;;;5084998;28;20056;-67
2023/11/07 09:19:39;;;;;;;2.58;0.85;;;;;;;;;;5082203;28;20516;-67
2023/11/07 09:22:07;;;;;;;1.27;0.65;;;;;;;;;;5086687;28;20044;-67
2023/11/07 09:24:34;;;;;;;2.25;0.80;;;;;;;;;;5089434;28;20381;-67
2023/11/07 09:27:00;;;;;;;2.92;0.80;;;;;;;;;;5085039;28;20052;-67
2023/11/07 09:29:28;;;;;;;2.35;0.60;;;;;;;;;;5091341;28;20173;-67
2023/11/07 09:31:54;;;;;;;1.52;0.75;;;;;;;;;;5080052;28;20057;-67
2023/11/07 09:34:25;;;;;;;1.70;0.80;;;;;;;;;;5086500;28;20045;-67
2023/11/07 09:36:52;;;;;;;2.05;0.98;;;;;;;;;;5088418;28;20051;-67
2023/11/07 09:39:19;;;;;;;2.15;1.00;;;;;;;;;;5084511;28;20048;-66
2023/11/07 09:41:46;;;;;;;2.38;0.90;;;;;;;;;;5088336;28;20048;-67
2023/11/07 09:44:14;;;;;;;3.30;1.40;;;;;;;;;;5073166;28;20051;-67
2023/11/07 09:46:42;;;;;;;2.85;0.88;;;;;;;;;;5093914;28;20040;-67
2023/11/07 09:49:08;;;;;;;1.65;0.70;;;;;;;;;;5076392;28;20419;-67
2023/11/07 09:51:37;;;;;;;2.35;0.75;;;;;;;;;;5082831;28;20059;-67
2023/11/07 09:54:05;;;;;;;1.92;1.00;;;;;;;;;;5091851;28;20484;-67
2023/11/07 09:56:34;;;;;;;2.13;0.90;;;;;;;;;;5084803;28;20067;-67
2023/11/07 09:59:07;;;;;;;2.20;0.80;;;;;;;;;;5084852;28;20052;-67
2023/11/07 10:01:34;;;;;;;2.53;0.90;;;;;;;;;;5085943;28;20071;-67
2023/11/07 10:04:02;;;;;;;2.17;0.80;;;;;;;;;;5084450;28;20059;-67
2023/11/07 10:06:28;;;;;;;3.65;0.93;;;;;;;;;;5098970;28;20048;-67
2023/11/07 10:08:57;;;;;;;6.70;1.08;;;;;;;;;;5084394;28;20052;-68
2023/11/07 10:11:23;;;;;;;2.45;1.08;;;;;;;;;;5088373;28;20044;-67
2023/11/07 10:14:00;;;;;;;2.15;0.90;;;;;;;;;;5086804;28;20056;-67
2023/11/07 10:16:35;;;;;;;2.65;1.38;;;;;;;;;;5093354;28;20473;-67
2023/11/07 10:19:04;;;;;;;3.10;1.00;;;;;;;;;;5090266;28;20060;-67
2023/11/07 10:21:31;;;;;;;3.90;1.13;;;;;;;;;;5091736;28;20489;-67
2023/11/07 10:24:00;;;;;;;2.45;0.90;;;;;;;;;;5089476;28;20059;-67
2023/11/07 10:26:26;;;;;;;3.85;1.02;;;;;;;;;;5095947;28;20051;-67
2023/11/07 10:29:03;;;;;;;2.53;0.93;;;;;;;;;;5079701;28;20048;-68
2023/11/07 10:31:30;;;;;;;3.00;1.25;;;;;;;;;;5088407;28;20059;-67
2023/11/07 10:34:11;;;;;;;1.65;0.90;;;;;;;;;;5075829;28;20063;-66
2023/11/07 10:36:41;;;;;;;3.10;1.05;;;;;;;;;;5087535;28;20047;-67
2023/11/07 10:39:16;;;;;;;3.13;1.00;;;;;;;;;;5073608;28;20064;-67
2023/11/07 10:41:44;;;;;;;2.30;1.00;;;;;;;;;;5084912;28;20048;-67
2023/11/07 10:44:22;;;;;;;3.40;1.20;;;;;;;;;;5084516;28;20047;-67
2023/11/07 10:46:50;;;;;;;2.90;1.08;;;;;;;;;;5093468;28;20055;-67
2023/11/07 10:49:18;;;;;;;2.72;0.98;;;;;;;;;;5083620;28;20048;-67
2023/11/07 10:51:45;;;;;;;2.38;0.85;;;;;;;;;;5097270;28;20059;-67
2023/11/07 10:54:13;;;;;;;3.05;1.27;;;;;;;;;;5085518;28;20067;-67
2023/11/07 10:56:43;;;;;;;3.00;1.17;;;;;;;;;;5084637;28;20048;-67
2023/11/07 10:59:14;;;;;;;2.38;1.17;;;;;;;;;;5080088;28;20049;-69
2023/11/07 11:01:41;;;;;;;2.60;1.10;;;;;;;;;;5081588;28;20056;-68
2023/11/07 11:04:11;;;;;;;3.40;1.15;;;;;;;;;;5087277;28;20063;-67
2023/11/07 11:06:38;;;;;;;3.17;0.95;;;;;;;;;;5071717;28;20044;-67
2023/11/07 11:09:10;;;;;;;2.72;0.90;;;;;;;;;;5076390;28;20060;-66
2023/11/07 11:11:39;;;;;;;2.92;1.30;;;;;;;;;;5075509;28;20059;-66
2023/11/07 11:14:08;;;;;;;2.20;0.77;;;;;;;;;;5076812;28;20532;-66
2023/11/07 11:16:35;;;;;;;3.88;1.08;;;;;;;;;;5089058;28;20501;-66
2023/11/07 11:19:06;;;;;;;2.78;0.80;;;;;;;;;;5077370;28;20053;-66
2023/11/07 11:21:36;;;;;;;4.47;1.02;;;;;;;;;;5092956;28;20404;-66
2023/11/07 11:24:05;;;;;;;4.10;1.02;;;;;;;;;;5087467;28;20048;-66
2023/11/07 11:26:35;;;;;;;2.95;0.95;;;;;;;;;;5081966;28;20052;-67
2023/11/07 11:29:22;;;;;;;3.30;1.00;;;;;;;;;;5080434;28;20159;-66
2023/11/07 11:31:49;;;;;;;2.53;1.20;;;;;;;;;;5089306;28;20406;-66
2023/11/07 11:34:22;;;;;;;4.40;1.20;;;;;;;;;;5088529;28;20050;-66
2023/11/07 11:36:52;;;;;;;4.93;1.40;;;;;;;;;;5081510;28;20374;-66
2023/11/07 11:39:36;;;;;;;2.75;1.23;;;;;;;;;;5088436;28;20048;-66
2023/11/07 11:42:09;;;;;;;3.40;1.00;;;;;;;;;;5085895;28;20412;-67
2023/11/07 11:44:37;;;;;;;2.92;1.10;;;;;;;;;;5083254;28;20063;-66
2023/11/07 11:47:04;;;;;;;4.20;1.00;;;;;;;;;;5082250;28;20373;-67
2023/11/07 11:49:32;;;;;;;3.08;1.20;;;;;;;;;;5098325;28;20059;-66
2023/11/07 11:51:59;;;;;;;3.78;1.10;;;;;;;;;;5086147;28;20067;-66
2023/11/07 11:54:45;;;;;;;1.67;0.90;;;;;;;;;;5094861;28;20063;-66
2023/11/07 11:57:12;;;;;;;2.17;0.88;;;;;;;;;;5079482;28;20055;-66
2023/11/07 11:59:54;;;;;;;3.08;1.13;;;;;;;;;;5079065;28;20048;-67
2023/11/07 12:02:39;;;;;;;3.05;0.93;;;;;;;;;;5091233;28;20071;-66
2023/11/07 12:05:18;;;;;;;2.72;1.27;;;;;;;;;;5088122;28;20517;-65
2023/11/07 12:07:45;;;;;;;2.55;1.02;;;;;;;;;;5078375;28;20059;-65
2023/11/07 12:10:14;;;;;;;2.28;0.82;;;;;;;;;;5082540;28;20064;-65
2023/11/07 12:12:41;;;;;;;1.85;0.90;;;;;;;;;;5071285;28;20064;-66
2023/11/07 12:15:08;;;;;;;3.83;1.20;;;;;;;;;;5081797;28;20044;-66
2023/11/07 12:17:46;;;;;;;3.22;1.10;;;;;;;;;;5073129;28;20048;-66
2023/11/07 12:20:14;;;;;;;3.53;1.17;;;;;;;;;;5090347;28;20071;-66
2023/11/07 12:22:45;;;;;;;3.83;2.08;;;;;;;;;;5084088;28;20063;-68
2023/11/07 12:25:13;;;;;;;2.95;1.05;;;;;;;;;;5076550;28;20056;-66
2023/11/07 12:27:41;;;;;;;3.05;1.00;;;;;;;;;;5079103;28;20391;-66
2023/11/07 12:30:14;;;;;;;3.17;1.23;;;;;;;;;;5076141;28;20059;-66
2023/11/07 12:32:40;;;;;;;2.60;1.00;;;;;;;;;;5094500;28;20059;-66
2023/11/07 12:35:25;;;;;;;3.25;1.10;;;;;;;;;;5087650;28;20061;-66
2023/11/07 12:37:54;;;;;;;3.60;1.58;;;;;;;;;;5085631;28;20053;-66
2023/11/07 12:40:21;;;;;;;3.30;1.10;;;;;;;;;;5082856;28;20062;-66
2023/11/07 12:42:52;;;;;;;3.75;1.30;;;;;;;;;;5091427;28;20493;-67
2023/11/07 12:45:24;;;;;;;3.08;1.23;;;;;;;;;;5074686;28;20048;-66
2023/11/07 12:47:54;;;;;;;2.45;1.20;;;;;;;;;;5092335;28;20047;-67
2023/11/07 12:50:22;;;;;;;3.05;1.10;;;;;;;;;;5077094;28;20071;-67
2023/11/07 12:52:56;;;;;;;3.22;1.00;;;;;;;;;;5090792;28;20044;-67
2023/11/07 12:55:27;;;;;;;3.45;1.00;;;;;;;;;;5093157;28;20052;-67
2023/11/07 12:57:56;;;;;;;4.70;1.30;;;;;;;;;;5084351;28;20404;-66
2023/11/07 13:00:24;;;;;;;1.67;0.82;;;;;;;;;;5088317;28;20056;-66
2023/11/07 13:02:54;;;;;;;4.30;1.55;;;;;;;;;;5088291;28;20401;-66
2023/11/07 13:05:21;;;;;;;4.60;1.20;;;;;;;;;;5083671;28;20048;-66
2023/11/07 13:07:51;;;;;;;2.60;1.13;;;;;;;;;;5092895;28;20044;-67
2023/11/07 13:10:20;;;;;;;4.30;1.20;;;;;;;;;;5087605;28;20152;-66
2023/11/07 13:12:48;;;;;;;2.35;1.08;;;;;;;;;;5078415;28;20053;-67
2023/11/07 13:15:16;;;;;;;2.47;0.98;;;;;;;;;;5075081;28;20055;-66
2023/11/07 13:17:46;;;;;;;2.17;1.10;;;;;;;;;;5084363;28;20055;-67
2023/11/07 13:20:13;;;;;;;2.42;1.00;;;;;;;;;;5075615;28;20052;-67
2023/11/07 13:22:41;;;;;;;3.15;1.02;;;;;;;;;;5081831;28;20055;-67
2023/11/07 13:25:09;;;;;;;2.75;1.10;;;;;;;;;;5084676;28;20068;-67
2023/11/07 13:27:40;;;;;;;3.40;1.00;;;;;;;;;;5087927;28;20048;-66
2023/11/07 13:30:08;;;;;;;2.65;1.13;;;;;;;;;;5084007;28;20052;-66
2023/11/07 13:32:35;;;;;;;2.92;1.10;;;;;;;;;;5086097;28;20445;-66
2023/11/07 13:35:07;;;;;;;2.67;1.10;;;;;;;;;;5077015;28;20056;-66
2023/11/07 13:37:36;;;;;;;3.38;1.40;;;;;;;;;;5078196;28;20052;-66
2023/11/07 13:40:05;;;;;;;4.45;1.25;;;;;;;;;;5088354;28;20063;-66
2023/11/07 13:42:33;;;;;;;3.72;1.20;;;;;;;;;;5082847;28;20074;-66
2023/11/07 13:45:01;;;;;;;2.63;1.23;;;;;;;;;;5087385;28;20052;-66
2023/11/07 13:47:28;;;;;;;3.15;1.23;;;;;;;;;;5083983;28;20143;-66
2023/11/07 13:49:55;;;;;;;2.40;1.00;;;;;;;;;;5086950;28;20056;-66
2023/11/07 13:52:23;;;;;;;2.63;1.40;;;;;;;;;;5089793;28;20060;-66
2023/11/07 13:54:50;;;;;;;2.47;1.33;;;;;;;;;;5085802;28;20052;-66
2023/11/07 13:57:17;;;;;;;3.22;1.30;;;;;;;;;;5082843;28;20522;-65
2023/11/07 13:59:44;;;;;;;3.42;1.35;;;;;;;;;;5090173;28;20059;-65
2023/11/07 14:02:12;;;;;;;2.70;1.40;;;;;;;;;;5087861;28;20060;-66
2023/11/07 14:04:42;;;;;;;3.55;1.30;;;;;;;;;;5089400;28;20060;-67
2023/11/07 14:07:11;;;;;;;;;;;;;;;;;;5080628;28;20056;-66
2023/11/07 14:09:39;;;;;;;5.00;1.60;;;;;;;;;;5080852;28;20389;-66
2023/11/07 14:12:07;;;;;;;3.45;1.20;;;;;;;;;;5084272;28;20059;-66
2023/11/07 14:14:34;;;;;;;5.30;1.20;;;;;;;;;;5090051;28;20052;-66
2023/11/07 14:17:00;;;;;;;3.78;1.10;;;;;;;;;;5089364;28;20055;-66
2023/11/07 14:19:29;;;;;;;4.82;1.45;;;;;;;;;;5091089;28;20123;-66
2023/11/07 14:21:55;;;;;;;2.08;1.00;;;;;;;;;;5086357;28;20055;-67
2023/11/07 14:24:22;;;;;;;3.67;1.60;;;;;;;;;;5089355;28;20048;-66
2023/11/07 14:26:49;;;;;;;3.10;1.20;;;;;;;;;;5087000;28;20052;-66
2023/11/07 14:29:18;;;;;;;2.45;1.40;;;;;;;;;;5079900;28;20056;-66
2023/11/07 14:31:45;;;;;;;4.30;1.10;;;;;;;;;;5080671;28;20071;-66
2023/11/07 14:34:12;;;;;;;2.63;1.35;;;;;;;;;;5079824;28;20052;-66
2023/11/07 14:36:40;;;;;;;5.13;1.52;;;;;;;;;;5076030;28;20044;-67
2023/11/07 14:39:11;;;;;;;4.18;1.20;;;;;;;;;;5090133;28;20374;-66
2023/11/07 14:41:40;;;;;;;3.05;1.50;;;;;;;;;;5083931;28;20058;-66
2023/11/07 14:44:09;;;;;;;3.90;1.40;;;;;;;;;;5074609;28;20059;-66
2023/11/07 14:46:36;;;;;;;4.00;1.83;;;;;;;;;;5083419;28;20055;-66
2023/11/07 14:49:04;;;;;;;5.20;1.20;;;;;;;;;;5090148;28;20480;-66